• Join FlightAware (Why Join?)
  • Login
  • US Flag 
02:03AM EDT


 

Airport Tracker/Info


-or-


 

Live Flight TrackerFlight Track Log ✈ UCA4790 ✈ 28-Aug-2013 ✈ KCLE - KSYR

Flight Track Log - Related Links

Times and Time Zones

All times are in EDT time to prevent confusion due to time zone crossing. See the UCA4790 flight status page for this flight to view local times or setup timezone preferences in your user account.

Time Position Orientation Groundspeed Altitude Reporting Facility
EDT Latitude Longitude Course Direction KTS MPH feet Rate Location/Type
08:45PM 41.4194 -81.8347 28° Northeast 111 128 1,500  Level Cleveland Center
08:46PM 41.4425 -81.8186 28° Northeast 140 161 2,100 1,140 Climbing Cleveland Center
08:47PM 41.4994 -81.7558 40° Northeast 168 193 4,200 1,260 Climbing Cleveland Center
08:48PM 41.5147 -81.6950 71° East 163 188 5,500 1,200 Climbing Cleveland Center
08:49PM 41.5361 -81.6372 64° Northeast 173 199 6,600 1,140 Climbing Cleveland Center
08:50PM 41.5597 -81.5739 63° Northeast 173 199 7,800 1,200 Climbing Cleveland Center
08:51PM 41.5808 -81.5131 65° Northeast 173 199 9,000 1,140 Climbing Cleveland Center
08:52PM 41.6044 -81.4494 64° Northeast 173 199 10,100 1,080 Climbing Cleveland Center
08:53PM 41.6278 -81.3858 64° Northeast 173 199 11,200 960 Climbing Cleveland Center
08:54PM 41.6492 -81.3278 64° Northeast 178 205 12,100 900 Climbing Cleveland Center
08:55PM 41.6703 -81.2614 67° East 188 216 13,100 960 Climbing Cleveland Center
08:56PM 41.6894 -81.1922 70° East 195 224 14,100 960 Climbing Cleveland Center
08:57PM 41.7106 -81.1256 67° East 195 224 15,100 900 Climbing Cleveland Center
08:58PM 41.7339 -81.0533 67° East 195 224 16,000 900 Climbing Cleveland Center
08:59PM 41.7550 -80.9839 68° East 195 224 16,900 840 Climbing Cleveland Center
09:00PM 41.7781 -80.9033 69° East 195 224 17,700 840 Climbing Cleveland Center
09:01PM 41.8014 -80.8311 67° East 205 236 18,600 900 Climbing Cleveland Center
09:02PM 41.8244 -80.7558 68° East 210 242 19,500 780 Climbing Cleveland Center
09:03PM 41.8453 -80.6864 68° East 210 242 20,200 660 Climbing Cleveland Center
09:04PM 41.8683 -80.6139 67° East 210 242 20,900 360 Climbing Cleveland Center
09:05PM 41.8911 -80.5358 69° East 215 247 21,000  Climbing Cleveland Center
09:06PM 41.9183 -80.4464 68° East 237 273 21,000  Level Cleveland Center
09:07PM 41.9453 -80.3542 69° East 250 288 21,000  Level Cleveland Center
09:08PM 41.9742 -80.2647 66° East 250 288 21,000  Level Cleveland Center
09:09PM 41.9969 -80.1836 69° East 250 288 21,000  Level Cleveland Center
09:10PM 42.0236 -80.0911 69° East 256 295 21,000  Level Cleveland Center
09:11PM 42.0503 -80.0017 68° East 256 295 21,000  Level Cleveland Center
09:12PM 42.0769 -79.9117 68° East 256 295 21,000  Level Cleveland Center
09:13PM 42.1033 -79.8192 69° East 256 295 21,000  Level Cleveland Center
09:14PM 42.1297 -79.7292 68° East 256 295 21,000  Level Cleveland Center
09:15PM 42.1583 -79.6364 67° East 256 295 21,000  Level Cleveland Center
09:16PM 42.1825 -79.5464 70° East 256 295 21,000  Level Cleveland Center
09:17PM 42.2089 -79.4564 68° East 256 295 21,000  Level Cleveland Center
09:18PM 42.2369 -79.3633 68° East 256 295 21,000  Level Cleveland Center
09:19PM 42.2650 -79.2644 69° East 256 295 21,000  Level Cleveland Center
09:20PM 42.2911 -79.1714 69° East 256 295 21,000  Level Cleveland Center
09:21PM 42.3172 -79.0836 68° East 256 295 21,000  Level Cleveland Center
09:22PM 42.3431 -78.9903 69° East 256 295 21,000  Level Cleveland Center
09:23PM 42.3628 -78.9197 69° East 256 295 21,000  Level Cleveland Center
09:24PM 42.3925 -78.8178 68° East 256 295 21,000  Level Cleveland Center
09:25PM 42.4181 -78.7242 70° East 256 295 21,000  Level Cleveland Center
09:26PM 42.4417 -78.6333 71° East 256 295 21,000  Level Cleveland Center
09:27PM 42.4692 -78.5397 68° East 256 295 21,000  Level Cleveland Center
09:28PM 42.4947 -78.4514 69° East 256 295 21,000  Level Cleveland Center
09:29PM 42.5200 -78.3606 69° East 256 295 21,000  Level Cleveland Center
09:30PM 42.5453 -78.2667 70° East 256 295 21,000  Level Cleveland Center
09:31PM 42.5706 -78.1756 69° East 256 295 21,000  Level Cleveland Center
09:32PM 42.5958 -78.0842 69° East 256 295 21,000  Level Cleveland Center
09:33PM 42.6208 -77.9928 70° East 256 295 21,000  Level Cleveland Center
09:34PM 42.6458 -77.8986 70° East 256 295 21,000 -480 Level Cleveland Center
09:35PM 42.6686 -77.8017 72° East 256 295 20,100 -1,080 Descending Cleveland Center
09:36PM 42.6994 -77.7042 67° East 269 310 18,900 -1,200 Descending Cleveland Center
09:37PM 42.7278 -77.5928 71° East 275 316 17,700 -1,200 Descending Cleveland Center
09:38PM 42.7544 -77.4897 71° East 275 316 16,500 -1,200 Descending Cleveland Center
09:39PM 42.7808 -77.3922 70° East 275 316 15,300 -1,200 Descending Cleveland Center
09:40PM 42.8072 -77.2944 70° East 270 311 14,100 -1,200 Descending Cleveland Center
09:41PM 42.8336 -77.1942 70° East 270 311 12,900 -1,200 Descending Cleveland Center
09:42PM 42.8558 -77.1022 72° East 270 311 11,700 -960 Descending Cleveland Center
09:43PM 42.8822 -77.0100 69° East 270 311 11,000 -240 Descending Cleveland Center
09:45PM 42.9258 -76.8444 70° East 241 277 11,000 -540 Level Boston Center
09:46PM 42.9456 -76.7664 71° East 242 278 9,600 -1,680 Descending Boston Center
09:47PM 42.9761 -76.6775 65° Northeast 254 292 7,900 -1,680 Descending Boston Center
09:48PM 43.0081 -76.5975 61° Northeast 252 290 6,300 -1,320 Descending Boston Center
09:49PM 43.0403 -76.5172 61° Northeast 240 276 5,200 -1,080 Descending Boston Center
09:50PM 43.0742 -76.4428 58° Northeast 225 259 4,200 -720 Descending Boston Center
09:51PM 43.0972 -76.3758 65° Northeast 213 245 3,900 -720 Descending Boston Center
09:52PM 43.0997 -76.3022 87° East 194 223 2,900 -960 Descending Boston Center
09:53PM 43.1019 -76.2369 87° East 162 186 2,000 -840 Descending Boston Center
09:54PM 43.1078 -76.1858 81° East 128 147 1,300 -780 Descending Boston Center